Loire Princesse — FM6242 — position and weather

sailwx.info

Track history (hours):
 
Tides and Currents Weather Stations Pressure Air Temp Water Temp Dewpoint Dewpoint Depression Visibility Wind Speed Wind Dir Waves Ship Positions

Loire Princesse

Last reported at 2017-Nov-19 09:19 UTC. Time now 2017-Nov-22 14:57 UTC.
Position N 47°17' W 002°12'.

Length 90 m; draft 0.7 m.

Type: Ship. MMSI: 226010880.

Date/timePositionNaut miles runAvg speedWind from/ knotsBaromVisibWave heightAir tempDewpointWater temp
2017-Nov-19 09:19N 47°17' W 002°12'0 0.0
2017-Nov-19 09:00N 47°17' W 002°12'0 0.0
2017-Nov-19 07:12N 47°17' W 002°12'0 0.0
2017-Nov-18 22:42N 47°17' W 002°12'0 0.0
2017-Nov-18 13:49N 47°17' W 002°12'0 0.0
2017-Nov-18 13:29N 47°17' W 002°12'0 0.0
2017-Nov-18 13:00N 47°17' W 002°12'0 0.0
2017-Nov-18 12:27N 47°17' W 002°12'1 2.3
2017-Nov-18 12:00N 47°16' W 002°12'0 0.6
2017-Nov-18 11:23N 47°16' W 002°12'2 4.3
2017-Nov-18 11:00N 47°17' W 002°10'4 7.5
2017-Nov-18 10:30N 47°18' W 002°05'5 9.3
2017-Nov-18 10:00N 47°17' W 001°58'510.0
2017-Nov-18 09:30N 47°16' W 001°51'5 9.7
2017-Nov-18 09:00N 47°12' W 001°46'510.2
2017-Nov-18 08:30N 47°11' W 001°39'3 6.3
2017-Nov-18 08:01N 47°12' W 001°34'0 0.0
2017-Nov-18 07:30N 47°12' W 001°34'0 0.0
2017-Nov-18 07:00N 47°12' W 001°34'0 0.0
2017-Nov-18 06:30N 47°12' W 001°34'0 0.0
2017-Nov-18 06:00N 47°12' W 001°34'0 0.0
2017-Nov-18 05:30N 47°12' W 001°34'0 0.0
2017-Nov-18 05:00N 47°12' W 001°34'0 0.0
2017-Nov-18 04:30N 47°12' W 001°34'0 0.0
2017-Nov-18 04:00N 47°12' W 001°34'0 0.0
2017-Nov-18 03:30N 47°12' W 001°34'0 0.0
2017-Nov-18 02:59N 47°12' W 001°34'0 0.0
2017-Nov-18 02:30N 47°12' W 001°34'0 0.0
2017-Nov-18 02:00N 47°12' W 001°34'0 0.0
2017-Nov-18 01:30N 47°12' W 001°34'0 0.0
2017-Nov-18 01:00N 47°12' W 001°34'0 0.0
2017-Nov-18 00:30N 47°12' W 001°34'0 0.0
2017-Nov-18 00:00N 47°12' W 001°34'0 0.0
2017-Nov-17 23:30N 47°12' W 001°34'0 0.0
2017-Nov-17 23:00N 47°12' W 001°34'0 0.0
2017-Nov-17 22:30N 47°12' W 001°34'0 0.0
2017-Nov-17 22:00N 47°12' W 001°34'0 0.0
2017-Nov-17 21:30N 47°12' W 001°34'0 0.0
2017-Nov-17 21:00N 47°12' W 001°34'0 0.0
2017-Nov-17 20:31N 47°12' W 001°34'0 0.0
2017-Nov-17 20:01N 47°12' W 001°34'0 0.0
2017-Nov-17 19:30N 47°12' W 001°34'0 0.0
2017-Nov-17 18:59N 47°12' W 001°34'0 0.0
2017-Nov-17 18:30N 47°12' W 001°34'0 0.0
2017-Nov-17 18:00N 47°12' W 001°34'0 0.0
2017-Nov-17 17:30N 47°12' W 001°34'0 0.0
2017-Nov-17 17:00N 47°12' W 001°34'0 0.0
2017-Nov-17 16:30N 47°12' W 001°34'0 0.0
2017-Nov-17 16:00N 47°12' W 001°34'0 0.0
2017-Nov-17 15:30N 47°12' W 001°34'0 0.0
2017-Nov-17 15:00N 47°12' W 001°34'0 0.0
2017-Nov-17 14:30N 47°12' W 001°34'0 0.0
2017-Nov-17 14:00N 47°12' W 001°34'0 0.0
2017-Nov-17 13:30N 47°12' W 001°34'0 0.0
2017-Nov-17 12:59N 47°12' W 001°34'0 0.0
2017-Nov-17 12:30N 47°12' W 001°34'0 0.0
2017-Nov-17 12:00N 47°12' W 001°34'0 0.0
2017-Nov-17 11:30N 47°12' W 001°34'0 0.0
2017-Nov-17 11:00N 47°12' W 001°34'0 0.0
2017-Nov-17 10:30N 47°12' W 001°34'0 0.0
2017-Nov-17 09:59N 47°12' W 001°34'0 0.0
2017-Nov-17 09:31N 47°12' W 001°34'0 0.0
2017-Nov-17 09:00N 47°12' W 001°34'0 0.0
2017-Nov-17 08:29N 47°12' W 001°34'0 0.0
2017-Nov-17 07:59N 47°12' W 001°34'0 0.0
2017-Nov-17 07:30N 47°12' W 001°34'0 0.0
2017-Nov-17 07:00N 47°12' W 001°34'0 0.0
2017-Nov-17 06:30N 47°12' W 001°34'0 0.0
2017-Nov-17 05:59N 47°12' W 001°34'0 0.0
2017-Nov-17 05:30N 47°12' W 001°34'0 0.0
2017-Nov-17 05:00N 47°12' W 001°34'0 0.0
2017-Nov-17 04:30N 47°12' W 001°34'0 0.0
2017-Nov-17 03:59N 47°12' W 001°34'0 0.0
2017-Nov-17 03:30N 47°12' W 001°34'0 0.0
2017-Nov-17 03:00N 47°12' W 001°34'0 0.0
2017-Nov-17 02:29N 47°12' W 001°34'0 0.0
2017-Nov-17 02:00N 47°12' W 001°34'0 0.0
2017-Nov-17 01:30N 47°12' W 001°34'0 0.0
2017-Nov-17 00:59N 47°12' W 001°34'0 0.0
2017-Nov-17 00:30N 47°12' W 001°34'0 0.0
2017-Nov-17 00:00N 47°12' W 001°34'0 0.0
2017-Nov-16 23:30N 47°12' W 001°34'0 0.0
2017-Nov-16 23:00N 47°12' W 001°34'0 0.0
2017-Nov-16 22:30N 47°12' W 001°34'0 0.0
2017-Nov-16 22:00N 47°12' W 001°34'0 0.0
2017-Nov-16 21:30N 47°12' W 001°34'0 0.0
2017-Nov-16 21:00N 47°12' W 001°34'0 0.0
2017-Nov-16 20:30N 47°12' W 001°34'0 0.0
2017-Nov-16 20:00N 47°12' W 001°34'0 0.0
2017-Nov-16 19:30N 47°12' W 001°34'0 0.0
2017-Nov-16 19:00N 47°12' W 001°34'0 0.0
2017-Nov-16 18:30N 47°12' W 001°34'0 0.0
2017-Nov-16 18:00N 47°12' W 001°34'0 0.0
2017-Nov-16 17:30N 47°12' W 001°34'0 0.0
2017-Nov-16 17:00N 47°12' W 001°34'0 0.0
2017-Nov-16 16:30N 47°12' W 001°34'0 0.0
2017-Nov-16 15:59N 47°12' W 001°34'0 0.0
2017-Nov-16 15:29N 47°12' W 001°34'0 0.0
2017-Nov-16 14:59N 47°12' W 001°34'0 0.0
2017-Nov-16 14:31N 47°12' W 001°34'0 0.0
2017-Nov-16 14:00N 47°12' W 001°34'0 0.0
2017-Nov-16 13:30N 47°12' W 001°34'0 0.0
2017-Nov-16 13:00N 47°12' W 001°34'0 0.0
2017-Nov-16 12:31N 47°12' W 001°34'0 0.0
2017-Nov-16 12:00N 47°12' W 001°34'0 0.0
2017-Nov-16 11:30N 47°12' W 001°34'0 0.0
2017-Nov-16 11:00N 47°12' W 001°34'0 0.0
2017-Nov-16 10:30N 47°12' W 001°34'0 0.0
2017-Nov-16 10:00N 47°12' W 001°34'0 0.0
2017-Nov-16 09:30N 47°12' W 001°34'0 0.0
2017-Nov-16 09:00N 47°12' W 001°34'0 0.0
2017-Nov-16 08:29N 47°12' W 001°34'0 0.0
2017-Nov-16 08:00N 47°12' W 001°34'0 0.0
2017-Nov-16 07:30N 47°12' W 001°34'0 0.0
2017-Nov-16 07:00N 47°12' W 001°34'0 0.0
2017-Nov-16 06:30N 47°12' W 001°34'0 0.0
2017-Nov-16 05:59N 47°12' W 001°34'0 0.0
2017-Nov-16 05:30N 47°12' W 001°34'0 0.0
2017-Nov-16 05:00N 47°12' W 001°34'0 0.0
2017-Nov-16 04:30N 47°12' W 001°34'0 0.0
2017-Nov-16 04:00N 47°12' W 001°34'0 0.0
2017-Nov-16 03:29N 47°12' W 001°34'0 0.0
2017-Nov-16 03:00N 47°12' W 001°34'0 0.0
2017-Nov-16 02:30N 47°12' W 001°34'0 0.0
2017-Nov-16 02:00N 47°12' W 001°34'0 0.0
2017-Nov-16 01:31N 47°12' W 001°34'0 0.0
2017-Nov-16 01:01N 47°12' W 001°34'0 0.0
2017-Nov-16 00:29N 47°12' W 001°34'0 0.0
2017-Nov-16 00:00N 47°12' W 001°34'0 0.0
2017-Nov-15 23:30N 47°12' W 001°34'0 0.0
2017-Nov-15 22:59N 47°12' W 001°34'0 0.0
2017-Nov-15 22:30N 47°12' W 001°34'0 0.0
2017-Nov-15 22:00N 47°12' W 001°34'0 0.5
2017-Nov-15 21:30N 47°12' W 001°34'2 4.2
2017-Nov-15 20:59N 47°12' W 001°37'2 4.2
2017-Nov-15 20:30N 47°12' W 001°40'2 3.4
2017-Nov-15 19:59N 47°12' W 001°43'2 3.6
2017-Nov-15 19:29N 47°12' W 001°40'4 7.4
2017-Nov-15 18:59N 47°12' W 001°35'1 1.6
2017-Nov-15 18:30N 47°12' W 001°34'0 0.0
2017-Nov-15 18:00N 47°12' W 001°34'0 0.0
2017-Nov-15 17:31N 47°12' W 001°34'0 0.0
2017-Nov-15 17:00N 47°12' W 001°34'0 0.0
2017-Nov-15 16:30N 47°12' W 001°34'0 0.0
2017-Nov-15 16:00N 47°12' W 001°34'0 0.0
2017-Nov-15 15:30N 47°12' W 001°34'0 0.0
2017-Nov-15 15:00N 47°12' W 001°34'0 0.0
2017-Nov-15 14:30N 47°12' W 001°34'0 0.0
2017-Nov-15 14:00N 47°12' W 001°34'0 0.0
2017-Nov-15 13:30N 47°12' W 001°34'0 0.0
2017-Nov-15 13:00N 47°12' W 001°34'0 0.0
2017-Nov-15 12:30N 47°12' W 001°34'0 0.0
2017-Nov-15 12:00N 47°12' W 001°34'0 0.0
2017-Nov-15 11:30N 47°12' W 001°34'0 0.0
2017-Nov-15 11:00N 47°12' W 001°34'2 3.0
2017-Nov-15 10:30N 47°12' W 001°32'2 4.6
2017-Nov-15 10:01N 47°13' W 001°29'3 6.1
2017-Nov-15 09:29N 47°16' W 001°26'3 6.2
2017-Nov-15 08:56N 47°18' W 001°22'  
2017-Nov-13 01:52N 47°12' W 001°34'0 0.0
2017-Nov-13 01:29N 47°12' W 001°34'0 0.0
2017-Nov-12 17:33N 47°12' W 001°34'0 0.0
2017-Nov-12 17:29N 47°12' W 001°34'0 0.0
2017-Nov-12 16:17N 47°12' W 001°34'0 0.0
2017-Nov-12 11:46N 47°12' W 001°34'0 0.0
2017-Nov-12 11:24N 47°12' W 001°34'0 0.0
2017-Nov-12 10:57N 47°12' W 001°34'0 0.0
2017-Nov-12 10:30N 47°12' W 001°34'0 0.0
2017-Nov-12 09:55N 47°12' W 001°34'0 0.0
2017-Nov-12 09:28N 47°12' W 001°34'0 0.0
2017-Nov-12 08:46N 47°12' W 001°34'0 0.0
2017-Nov-12 08:24N 47°12' W 001°34'0 0.0
2017-Nov-12 07:53N 47°12' W 001°34'0 0.0
2017-Nov-12 07:21N 47°12' W 001°34'0 0.0
2017-Nov-12 06:57N 47°12' W 001°34'0 0.0
2017-Nov-12 06:28N 47°12' W 001°34'0 0.0
2017-Nov-12 05:04N 47°12' W 001°34'0 0.0
2017-Nov-12 04:58N 47°12' W 001°34'0 0.0
2017-Nov-12 03:54N 47°12' W 001°34'0 0.0
2017-Nov-12 03:30N 47°12' W 001°34'0 0.0
2017-Nov-12 03:00N 47°12' W 001°34'0 0.0
2017-Nov-12 01:22N 47°12' W 001°34'0 0.0
2017-Nov-12 00:56N 47°12' W 001°34'0 0.0
2017-Nov-12 00:10N 47°12' W 001°34'0 0.0
2017-Nov-11 23:59N 47°12' W 001°34'0 0.0
2017-Nov-11 23:10N 47°12' W 001°34'0 0.0
2017-Nov-11 22:49N 47°12' W 001°34'0 0.0
2017-Nov-11 22:30N 47°12' W 001°34'0 0.0
2017-Nov-11 21:42N 47°12' W 001°34'0 0.0
2017-Nov-11 21:28N 47°12' W 001°34'0 0.0
2017-Nov-11 21:00N 47°12' W 001°34'0 0.0
2017-Nov-11 20:26N 47°12' W 001°34'0 0.0
2017-Nov-11 19:55N 47°12' W 001°34'0 0.0
2017-Nov-11 19:01N 47°12' W 001°34'0 0.1
2017-Nov-11 19:00N 47°12' W 001°34'0 0.0
2017-Nov-11 18:30N 47°12' W 001°34'0 0.0
2017-Nov-11 17:45N 47°12' W 001°34'0 0.0
2017-Nov-11 17:13N 47°12' W 001°34'0 0.0
2017-Nov-11 16:43N 47°12' W 001°34'0 0.0
2017-Nov-11 16:22N 47°12' W 001°34'0 0.0
2017-Nov-11 15:58N 47°12' W 001°34'0 0.0
2017-Nov-11 15:30N 47°12' W 001°34'0 0.0
2017-Nov-11 14:59N 47°12' W 001°34'0 0.0
2017-Nov-11 14:30N 47°12' W 001°34'0 0.0
2017-Nov-11 13:48N 47°12' W 001°34'0 0.0
2017-Nov-11 13:29N 47°12' W 001°34'0 0.0
2017-Nov-11 13:00N 47°12' W 001°34'0 0.0
2017-Nov-11 12:28N 47°12' W 001°34'0 0.0
2017-Nov-11 12:00N 47°12' W 001°34'0 0.0
2017-Nov-11 11:29N 47°12' W 001°34'0 0.0
2017-Nov-11 10:59N 47°12' W 001°34'0 0.0
2017-Nov-11 10:29N 47°12' W 001°34'0 0.0
2017-Nov-11 09:58N 47°12' W 001°34'0 0.0
2017-Nov-11 09:29N 47°12' W 001°34'0 0.0
2017-Nov-11 08:57N 47°12' W 001°34'0 0.0
2017-Nov-11 08:22N 47°12' W 001°34'0 0.0
2017-Nov-11 08:00N 47°12' W 001°34'0 0.0
2017-Nov-11 07:30N 47°12' W 001°34'0 0.0
2017-Nov-11 07:00N 47°12' W 001°34'0 0.0
2017-Nov-11 06:30N 47°12' W 001°34'0 0.0
2017-Nov-11 05:53N 47°12' W 001°34'0 0.0
2017-Nov-11 05:25N 47°12' W 001°34'0 0.0
2017-Nov-11 05:00N 47°12' W 001°34'0 0.0
2017-Nov-11 04:30N 47°12' W 001°34'0 0.0
2017-Nov-11 03:27N 47°12' W 001°34'0 0.0
2017-Nov-11 02:58N 47°12' W 001°34'0 0.0
2017-Nov-11 02:26N 47°12' W 001°34'0 0.0
2017-Nov-11 01:59N 47°12' W 001°34'0 0.0
2017-Nov-11 01:29N 47°12' W 001°34'0 0.0
2017-Nov-11 01:00N 47°12' W 001°34'0 0.0
2017-Nov-11 00:29N 47°12' W 001°34'0 0.0
2017-Nov-11 00:00N 47°12' W 001°34'0 0.0
2017-Nov-10 23:30N 47°12' W 001°34'0 0.0
2017-Nov-10 23:00N 47°12' W 001°34'0 0.0
2017-Nov-10 22:30N 47°12' W 001°34'0 0.0
2017-Nov-10 22:00N 47°12' W 001°34'0 0.0
2017-Nov-10 21:28N 47°12' W 001°34'0 0.0
2017-Nov-10 20:59N 47°12' W 001°34'0 0.0
2017-Nov-10 20:29N 47°12' W 001°34'0 0.0
2017-Nov-10 20:00N 47°12' W 001°34'0 0.0
2017-Nov-10 19:30N 47°12' W 001°34'0 0.0
2017-Nov-10 19:00N 47°12' W 001°34'2 3.0
2017-Nov-10 18:30N 47°12' W 001°36'510.1
2017-Nov-10 18:00N 47°12' W 001°43'5 9.3
2017-Nov-10 17:30N 47°14' W 001°50'4 8.0
2017-Nov-10 17:00N 47°17' W 001°54'4 7.9
2017-Nov-10 16:30N 47°17' W 001°60'4 6.9
2017-Nov-10 15:59N 47°18' W 002°05'3 5.7
2017-Nov-10 15:30N 47°18' W 002°09'1 2.6
2017-Nov-10 15:00N 47°17' W 002°11'5 8.6
2017-Nov-10 14:24N 47°18' W 002°03'13 8.9
2017-Nov-10 13:00N 47°13' W 001°47'18 5.6
2017-Nov-10 09:49N 47°18' W 001°22'  
Track history (hours):
 
Tides and Currents Weather Stations Pressure Air Temp Water Temp Dewpoint Dewpoint Depression Visibility Wind Speed Wind Dir Waves Ship Positions

Loire Princesse

Last reported at 2017-Nov-19 09:19 UTC. Time now 2017-Nov-22 14:57 UTC.
Position N 47°17' W 002°12'.

Length 90 m; draft 0.7 m.

Type: Ship. MMSI: 226010880.

Date/timePositionNaut miles runAvg speedWind from/ knotsBaromVisibWave heightAir tempDewpointWater temp
2017-Nov-19 09:19N 47°17' W 002°12'0 0.0
2017-Nov-19 09:00N 47°17' W 002°12'0 0.0
2017-Nov-19 07:12N 47°17' W 002°12'0 0.0
2017-Nov-18 22:42N 47°17' W 002°12'0 0.0
2017-Nov-18 13:49N 47°17' W 002°12'0 0.0
2017-Nov-18 13:29N 47°17' W 002°12'0 0.0
2017-Nov-18 13:00N 47°17' W 002°12'0 0.0
2017-Nov-18 12:27N 47°17' W 002°12'1 2.3
2017-Nov-18 12:00N 47°16' W 002°12'0 0.6
2017-Nov-18 11:23N 47°16' W 002°12'2 4.3
2017-Nov-18 11:00N 47°17' W 002°10'4 7.5
2017-Nov-18 10:30N 47°18' W 002°05'5 9.3
2017-Nov-18 10:00N 47°17' W 001°58'510.0
2017-Nov-18 09:30N 47°16' W 001°51'5 9.7
2017-Nov-18 09:00N 47°12' W 001°46'510.2
2017-Nov-18 08:30N 47°11' W 001°39'3 6.3
2017-Nov-18 08:01N 47°12' W 001°34'0 0.0
2017-Nov-18 07:30N 47°12' W 001°34'0 0.0
2017-Nov-18 07:00N 47°12' W 001°34'0 0.0
2017-Nov-18 06:30N 47°12' W 001°34'0 0.0
2017-Nov-18 06:00N 47°12' W 001°34'0 0.0
2017-Nov-18 05:30N 47°12' W 001°34'0 0.0
2017-Nov-18 05:00N 47°12' W 001°34'0 0.0
2017-Nov-18 04:30N 47°12' W 001°34'0 0.0
2017-Nov-18 04:00N 47°12' W 001°34'0 0.0
2017-Nov-18 03:30N 47°12' W 001°34'0 0.0
2017-Nov-18 02:59N 47°12' W 001°34'0 0.0
2017-Nov-18 02:30N 47°12' W 001°34'0 0.0
2017-Nov-18 02:00N 47°12' W 001°34'0 0.0
2017-Nov-18 01:30N 47°12' W 001°34'0 0.0
2017-Nov-18 01:00N 47°12' W 001°34'0 0.0
2017-Nov-18 00:30N 47°12' W 001°34'0 0.0
2017-Nov-18 00:00N 47°12' W 001°34'0 0.0
2017-Nov-17 23:30N 47°12' W 001°34'0 0.0
2017-Nov-17 23:00N 47°12' W 001°34'0 0.0
2017-Nov-17 22:30N 47°12' W 001°34'0 0.0
2017-Nov-17 22:00N 47°12' W 001°34'0 0.0
2017-Nov-17 21:30N 47°12' W 001°34'0 0.0
2017-Nov-17 21:00N 47°12' W 001°34'0 0.0
2017-Nov-17 20:31N 47°12' W 001°34'0 0.0
2017-Nov-17 20:01N 47°12' W 001°34'0 0.0
2017-Nov-17 19:30N 47°12' W 001°34'0 0.0
2017-Nov-17 18:59N 47°12' W 001°34'0 0.0
2017-Nov-17 18:30N 47°12' W 001°34'0 0.0
2017-Nov-17 18:00N 47°12' W 001°34'0 0.0
2017-Nov-17 17:30N 47°12' W 001°34'0 0.0
2017-Nov-17 17:00N 47°12' W 001°34'0 0.0
2017-Nov-17 16:30N 47°12' W 001°34'0 0.0
2017-Nov-17 16:00N 47°12' W 001°34'0 0.0
2017-Nov-17 15:30N 47°12' W 001°34'0 0.0
2017-Nov-17 15:00N 47°12' W 001°34'0 0.0
2017-Nov-17 14:30N 47°12' W 001°34'0 0.0
2017-Nov-17 14:00N 47°12' W 001°34'0 0.0
2017-Nov-17 13:30N 47°12' W 001°34'0 0.0
2017-Nov-17 12:59N 47°12' W 001°34'0 0.0
2017-Nov-17 12:30N 47°12' W 001°34'0 0.0
2017-Nov-17 12:00N 47°12' W 001°34'0 0.0
2017-Nov-17 11:30N 47°12' W 001°34'0 0.0
2017-Nov-17 11:00N 47°12' W 001°34'0 0.0
2017-Nov-17 10:30N 47°12' W 001°34'0 0.0
2017-Nov-17 09:59N 47°12' W 001°34'0 0.0
2017-Nov-17 09:31N 47°12' W 001°34'0 0.0
2017-Nov-17 09:00N 47°12' W 001°34'0 0.0
2017-Nov-17 08:29N 47°12' W 001°34'0 0.0
2017-Nov-17 07:59N 47°12' W 001°34'0 0.0
2017-Nov-17 07:30N 47°12' W 001°34'0 0.0
2017-Nov-17 07:00N 47°12' W 001°34'0 0.0
2017-Nov-17 06:30N 47°12' W 001°34'0 0.0
2017-Nov-17 05:59N 47°12' W 001°34'0 0.0
2017-Nov-17 05:30N 47°12' W 001°34'0 0.0
2017-Nov-17 05:00N 47°12' W 001°34'0 0.0
2017-Nov-17 04:30N 47°12' W 001°34'0 0.0
2017-Nov-17 03:59N 47°12' W 001°34'0 0.0
2017-Nov-17 03:30N 47°12' W 001°34'0 0.0
2017-Nov-17 03:00N 47°12' W 001°34'0 0.0
2017-Nov-17 02:29N 47°12' W 001°34'0 0.0
2017-Nov-17 02:00N 47°12' W 001°34'0 0.0
2017-Nov-17 01:30N 47°12' W 001°34'0 0.0
2017-Nov-17 00:59N 47°12' W 001°34'0 0.0
2017-Nov-17 00:30N 47°12' W 001°34'0 0.0
2017-Nov-17 00:00N 47°12' W 001°34'0 0.0
2017-Nov-16 23:30N 47°12' W 001°34'0 0.0
2017-Nov-16 23:00N 47°12' W 001°34'0 0.0
2017-Nov-16 22:30N 47°12' W 001°34'0 0.0
2017-Nov-16 22:00N 47°12' W 001°34'0 0.0
2017-Nov-16 21:30N 47°12' W 001°34'0 0.0
2017-Nov-16 21:00N 47°12' W 001°34'0 0.0
2017-Nov-16 20:30N 47°12' W 001°34'0 0.0
2017-Nov-16 20:00N 47°12' W 001°34'0 0.0
2017-Nov-16 19:30N 47°12' W 001°34'0 0.0
2017-Nov-16 19:00N 47°12' W 001°34'0 0.0
2017-Nov-16 18:30N 47°12' W 001°34'0 0.0
2017-Nov-16 18:00N 47°12' W 001°34'0 0.0
2017-Nov-16 17:30N 47°12' W 001°34'0 0.0
2017-Nov-16 17:00N 47°12' W 001°34'0 0.0
2017-Nov-16 16:30N 47°12' W 001°34'0 0.0
2017-Nov-16 15:59N 47°12' W 001°34'0 0.0
2017-Nov-16 15:29N 47°12' W 001°34'0 0.0
2017-Nov-16 14:59N 47°12' W 001°34'0 0.0
2017-Nov-16 14:31N 47°12' W 001°34'0 0.0
2017-Nov-16 14:00N 47°12' W 001°34'0 0.0
2017-Nov-16 13:30N 47°12' W 001°34'0 0.0
2017-Nov-16 13:00N 47°12' W 001°34'0 0.0
2017-Nov-16 12:31N 47°12' W 001°34'0 0.0
2017-Nov-16 12:00N 47°12' W 001°34'0 0.0
2017-Nov-16 11:30N 47°12' W 001°34'0 0.0
2017-Nov-16 11:00N 47°12' W 001°34'0 0.0
2017-Nov-16 10:30N 47°12' W 001°34'0 0.0
2017-Nov-16 10:00N 47°12' W 001°34'0 0.0
2017-Nov-16 09:30N 47°12' W 001°34'0 0.0
2017-Nov-16 09:00N 47°12' W 001°34'0 0.0
2017-Nov-16 08:29N 47°12' W 001°34'0 0.0
2017-Nov-16 08:00N 47°12' W 001°34'0 0.0
2017-Nov-16 07:30N 47°12' W 001°34'0 0.0
2017-Nov-16 07:00N 47°12' W 001°34'0 0.0
2017-Nov-16 06:30N 47°12' W 001°34'0 0.0
2017-Nov-16 05:59N 47°12' W 001°34'0 0.0
2017-Nov-16 05:30N 47°12' W 001°34'0 0.0
2017-Nov-16 05:00N 47°12' W 001°34'0 0.0
2017-Nov-16 04:30N 47°12' W 001°34'0 0.0
2017-Nov-16 04:00N 47°12' W 001°34'0 0.0
2017-Nov-16 03:29N 47°12' W 001°34'0 0.0
2017-Nov-16 03:00N 47°12' W 001°34'0 0.0
2017-Nov-16 02:30N 47°12' W 001°34'0 0.0
2017-Nov-16 02:00N 47°12' W 001°34'0 0.0
2017-Nov-16 01:31N 47°12' W 001°34'0 0.0
2017-Nov-16 01:01N 47°12' W 001°34'0 0.0
2017-Nov-16 00:29N 47°12' W 001°34'0 0.0
2017-Nov-16 00:00N 47°12' W 001°34'0 0.0
2017-Nov-15 23:30N 47°12' W 001°34'0 0.0
2017-Nov-15 22:59N 47°12' W 001°34'0 0.0
2017-Nov-15 22:30N 47°12' W 001°34'0 0.0
2017-Nov-15 22:00N 47°12' W 001°34'0 0.5
2017-Nov-15 21:30N 47°12' W 001°34'2 4.2
2017-Nov-15 20:59N 47°12' W 001°37'2 4.2
2017-Nov-15 20:30N 47°12' W 001°40'2 3.4
2017-Nov-15 19:59N 47°12' W 001°43'2 3.6
2017-Nov-15 19:29N 47°12' W 001°40'4 7.4
2017-Nov-15 18:59N 47°12' W 001°35'1 1.6
2017-Nov-15 18:30N 47°12' W 001°34'0 0.0
2017-Nov-15 18:00N 47°12' W 001°34'0 0.0
2017-Nov-15 17:31N 47°12' W 001°34'0 0.0
2017-Nov-15 17:00N 47°12' W 001°34'0 0.0
2017-Nov-15 16:30N 47°12' W 001°34'0 0.0
2017-Nov-15 16:00N 47°12' W 001°34'0 0.0
2017-Nov-15 15:30N 47°12' W 001°34'0 0.0
2017-Nov-15 15:00N 47°12' W 001°34'0 0.0
2017-Nov-15 14:30N 47°12' W 001°34'0 0.0
2017-Nov-15 14:00N 47°12' W 001°34'0 0.0
2017-Nov-15 13:30N 47°12' W 001°34'0 0.0
2017-Nov-15 13:00N 47°12' W 001°34'0 0.0
2017-Nov-15 12:30N 47°12' W 001°34'0 0.0
2017-Nov-15 12:00N 47°12' W 001°34'0 0.0
2017-Nov-15 11:30N 47°12' W 001°34'0 0.0
2017-Nov-15 11:00N 47°12' W 001°34'2 3.0
2017-Nov-15 10:30N 47°12' W 001°32'2 4.6
2017-Nov-15 10:01N 47°13' W 001°29'3 6.1
2017-Nov-15 09:29N 47°16' W 001°26'3 6.2
2017-Nov-15 08:56N 47°18' W 001°22'  
2017-Nov-13 01:52N 47°12' W 001°34'0 0.0
2017-Nov-13 01:29N 47°12' W 001°34'0 0.0
2017-Nov-12 17:33N 47°12' W 001°34'0 0.0
2017-Nov-12 17:29N 47°12' W 001°34'0 0.0
2017-Nov-12 16:17N 47°12' W 001°34'0 0.0
2017-Nov-12 11:46N 47°12' W 001°34'0 0.0
2017-Nov-12 11:24N 47°12' W 001°34'0 0.0
2017-Nov-12 10:57N 47°12' W 001°34'0 0.0
2017-Nov-12 10:30N 47°12' W 001°34'0 0.0
2017-Nov-12 09:55N 47°12' W 001°34'0 0.0
2017-Nov-12 09:28N 47°12' W 001°34'0 0.0
2017-Nov-12 08:46N 47°12' W 001°34'0 0.0
2017-Nov-12 08:24N 47°12' W 001°34'0 0.0
2017-Nov-12 07:53N 47°12' W 001°34'0 0.0
2017-Nov-12 07:21N 47°12' W 001°34'0 0.0
2017-Nov-12 06:57N 47°12' W 001°34'0 0.0
2017-Nov-12 06:28N 47°12' W 001°34'0 0.0
2017-Nov-12 05:04N 47°12' W 001°34'0 0.0
2017-Nov-12 04:58N 47°12' W 001°34'0 0.0
2017-Nov-12 03:54N 47°12' W 001°34'0 0.0
2017-Nov-12 03:30N 47°12' W 001°34'0 0.0
2017-Nov-12 03:00N 47°12' W 001°34'0 0.0
2017-Nov-12 01:22N 47°12' W 001°34'0 0.0
2017-Nov-12 00:56N 47°12' W 001°34'0 0.0
2017-Nov-12 00:10N 47°12' W 001°34'0 0.0
2017-Nov-11 23:59N 47°12' W 001°34'0 0.0
2017-Nov-11 23:10N 47°12' W 001°34'0 0.0
2017-Nov-11 22:49N 47°12' W 001°34'0 0.0
2017-Nov-11 22:30N 47°12' W 001°34'0 0.0
2017-Nov-11 21:42N 47°12' W 001°34'0 0.0
2017-Nov-11 21:28N 47°12' W 001°34'0 0.0
2017-Nov-11 21:00N 47°12' W 001°34'0 0.0
2017-Nov-11 20:26N 47°12' W 001°34'0 0.0
2017-Nov-11 19:55N 47°12' W 001°34'0 0.0
2017-Nov-11 19:01N 47°12' W 001°34'0 0.1
2017-Nov-11 19:00N 47°12' W 001°34'0 0.0
2017-Nov-11 18:30N 47°12' W 001°34'0 0.0
2017-Nov-11 17:45N 47°12' W 001°34'0 0.0
2017-Nov-11 17:13N 47°12' W 001°34'0 0.0
2017-Nov-11 16:43N 47°12' W 001°34'0 0.0
2017-Nov-11 16:22N 47°12' W 001°34'0 0.0
2017-Nov-11 15:58N 47°12' W 001°34'0 0.0
2017-Nov-11 15:30N 47°12' W 001°34'0 0.0
2017-Nov-11 14:59N 47°12' W 001°34'0 0.0
2017-Nov-11 14:30N 47°12' W 001°34'0 0.0
2017-Nov-11 13:48N 47°12' W 001°34'0 0.0
2017-Nov-11 13:29N 47°12' W 001°34'0 0.0
2017-Nov-11 13:00N 47°12' W 001°34'0 0.0
2017-Nov-11 12:28N 47°12' W 001°34'0 0.0
2017-Nov-11 12:00N 47°12' W 001°34'0 0.0
2017-Nov-11 11:29N 47°12' W 001°34'0 0.0
2017-Nov-11 10:59N 47°12' W 001°34'0 0.0
2017-Nov-11 10:29N 47°12' W 001°34'0 0.0
2017-Nov-11 09:58N 47°12' W 001°34'0 0.0
2017-Nov-11 09:29N 47°12' W 001°34'0 0.0
2017-Nov-11 08:57N 47°12' W 001°34'0 0.0
2017-Nov-11 08:22N 47°12' W 001°34'0 0.0
2017-Nov-11 08:00N 47°12' W 001°34'0 0.0
2017-Nov-11 07:30N 47°12' W 001°34'0 0.0
2017-Nov-11 07:00N 47°12' W 001°34'0 0.0
2017-Nov-11 06:30N 47°12' W 001°34'0 0.0
2017-Nov-11 05:53N 47°12' W 001°34'0 0.0
2017-Nov-11 05:25N 47°12' W 001°34'0 0.0
2017-Nov-11 05:00N 47°12' W 001°34'0 0.0
2017-Nov-11 04:30N 47°12' W 001°34'0 0.0
2017-Nov-11 03:27N 47°12' W 001°34'0 0.0
2017-Nov-11 02:58N 47°12' W 001°34'0 0.0
2017-Nov-11 02:26N 47°12' W 001°34'0 0.0
2017-Nov-11 01:59N 47°12' W 001°34'0 0.0
2017-Nov-11 01:29N 47°12' W 001°34'0 0.0
2017-Nov-11 01:00N 47°12' W 001°34'0 0.0
2017-Nov-11 00:29N 47°12' W 001°34'0 0.0
2017-Nov-11 00:00N 47°12' W 001°34'0 0.0
2017-Nov-10 23:30N 47°12' W 001°34'0 0.0
2017-Nov-10 23:00N 47°12' W 001°34'0 0.0
2017-Nov-10 22:30N 47°12' W 001°34'0 0.0
2017-Nov-10 22:00N 47°12' W 001°34'0 0.0
2017-Nov-10 21:28N 47°12' W 001°34'0 0.0
2017-Nov-10 20:59N 47°12' W 001°34'0 0.0
2017-Nov-10 20:29N 47°12' W 001°34'0 0.0
2017-Nov-10 20:00N 47°12' W 001°34'0 0.0
2017-Nov-10 19:30N 47°12' W 001°34'0 0.0
2017-Nov-10 19:00N 47°12' W 001°34'2 3.0
2017-Nov-10 18:30N 47°12' W 001°36'510.1
2017-Nov-10 18:00N 47°12' W 001°43'5 9.3
2017-Nov-10 17:30N 47°14' W 001°50'4 8.0
2017-Nov-10 17:00N 47°17' W 001°54'4 7.9
2017-Nov-10 16:30N 47°17' W 001°60'4 6.9
2017-Nov-10 15:59N 47°18' W 002°05'3 5.7
2017-Nov-10 15:30N 47°18' W 002°09'1 2.6
2017-Nov-10 15:00N 47°17' W 002°11'5 8.6
2017-Nov-10 14:24N 47°18' W 002°03'13 8.9
2017-Nov-10 13:00N 47°13' W 001°47'18 5.6
2017-Nov-10 09:49N 47°18' W 001°22'  

Dump ship's entire track history